createdAt,value
2016-04-11T00:00:15.427Z,42.44
2016-04-11T00:01:15.476Z,42.35
2016-04-11T00:02:15.526Z,42.35
2016-04-11T00:03:15.576Z,42.54
2016-04-11T00:04:15.640Z,42.44
2016-04-11T00:05:15.690Z,42.64
2016-04-11T00:06:15.724Z,42.54
2016-04-11T00:07:15.790Z,42.44
2016-04-11T00:08:15.855Z,42.83
2016-04-11T00:09:15.873Z,42.25
2016-04-11T00:10:15.939Z,42.54
2016-04-11T00:11:16.004Z,42.93
2016-04-11T00:12:16.037Z,42.73
2016-04-11T00:13:16.086Z,42.93
2016-04-11T00:14:16.152Z,42.64
2016-04-11T00:15:16.203Z,42.73
2016-04-11T00:16:16.268Z,42.73
2016-04-11T00:17:16.301Z,42.73
2016-04-11T00:18:16.336Z,42.73
2016-04-11T00:19:16.417Z,42.93
2016-04-11T00:20:16.451Z,42.73
2016-04-11T00:21:16.500Z,42.83
2016-04-11T00:22:16.565Z,42.83
2016-04-11T00:23:16.615Z,42.93
2016-04-11T00:24:16.664Z,42.83
2016-04-11T00:25:15.964Z,42.83
2016-04-11T00:26:16.622Z,42.83
2016-04-11T00:27:16.813Z,42.93
2016-04-11T00:28:16.878Z,42.64
2016-04-11T00:29:16.913Z,42.73
2016-04-11T00:30:16.977Z,42.83
2016-04-11T00:31:17.027Z,42.64
2016-04-11T00:32:17.061Z,42.83
2016-04-11T00:33:17.151Z,43.31
2016-04-11T00:34:17.223Z,43.02
2016-04-11T00:35:17.742Z,43.31
2016-04-11T00:36:17.296Z,43.21
2016-04-11T00:37:17.330Z,43.31
2016-04-11T00:38:17.364Z,43.21
2016-04-11T00:39:17.430Z,43.4
2016-04-11T00:40:17.479Z,43.31
2016-04-11T00:41:17.529Z,43.31
2016-04-11T00:42:17.609Z,43.31
2016-04-11T00:43:17.627Z,42.93
2016-04-11T00:44:17.693Z,43.4
2016-04-11T00:45:17.743Z,43.5
2016-04-11T00:46:17.776Z,43.5
2016-04-11T00:47:17.841Z,43.12
2016-04-11T00:48:17.891Z,43.6
2016-04-11T00:49:17.926Z,43.4
2016-04-11T00:50:17.990Z,43.5
2016-04-11T00:51:18.056Z,43.7
2016-04-11T00:52:18.105Z,43.5
2016-04-11T00:53:18.140Z,43.79
2016-04-11T00:54:18.235Z,43.6
2016-04-11T00:55:18.270Z,43.6
2016-04-11T00:56:18.303Z,43.6
2016-04-11T00:57:18.353Z,43.79
2016-04-11T00:58:18.418Z,43.5
2016-04-11T00:59:18.467Z,43.6
2016-04-11T01:00:18.501Z,43.7
2016-04-11T01:01:18.551Z,43.7
2016-04-11T01:02:18.631Z,43.7
2016-04-11T01:03:18.666Z,43.7
2016-04-11T01:04:18.699Z,43.6
2016-04-11T01:05:18.780Z,43.98
2016-04-11T01:06:18.830Z,43.7
2016-04-11T01:07:18.864Z,43.79
2016-04-11T01:08:18.930Z,43.98
2016-04-11T01:09:19.058Z,44.17
2016-04-11T01:10:19.033Z,43.31
2016-04-11T01:11:19.083Z,43.79
2016-04-11T01:12:19.116Z,43.4
2016-04-11T01:13:19.198Z,43.5
2016-04-11T01:14:19.247Z,43.7
2016-04-11T01:15:19.281Z,43.6
2016-04-11T01:16:19.347Z,43.79
2016-04-11T01:17:19.396Z,43.79
2016-04-11T01:18:19.430Z,43.98
2016-04-11T01:19:19.479Z,44.08
2016-04-11T01:20:19.545Z,43.79
2016-04-11T01:21:19.579Z,43.88
2016-04-11T01:22:19.628Z,43.88
2016-04-11T01:23:19.709Z,43.98
2016-04-11T01:24:19.742Z,43.88
2016-04-11T01:25:19.792Z,43.98
2016-04-11T01:26:19.873Z,43.7
2016-04-11T01:27:19.907Z,43.79
2016-04-11T01:28:19.941Z,43.79
2016-04-11T01:29:20.006Z,43.98
2016-04-11T01:30:20.072Z,43.98
2016-04-11T01:31:20.105Z,43.88
2016-04-11T01:32:20.170Z,44.17
2016-04-11T01:33:20.048Z,43.98
2016-04-11T01:34:20.301Z,43.88
2016-04-11T01:35:20.335Z,44.08
2016-04-11T01:36:20.353Z,44.08
2016-04-11T01:37:20.418Z,44.08
2016-04-11T01:38:20.499Z,44.17
2016-04-11T01:39:20.518Z,44.17
2016-04-11T01:40:20.582Z,44.08
2016-04-11T01:41:20.633Z,44.17
2016-04-11T01:42:20.666Z,44.08
2016-04-11T01:43:20.732Z,43.88
2016-04-11T01:44:20.781Z,44.17
2016-04-11T01:45:20.830Z,44.08
2016-04-11T01:46:20.896Z,44.17
2016-04-11T01:47:20.961Z,44.17
2016-04-11T01:48:20.995Z,44.56
2016-04-11T01:49:21.045Z,44.08
2016-04-11T01:50:21.078Z,44.27
2016-04-11T01:51:21.143Z,44.17
2016-04-11T01:52:21.193Z,44.08
2016-04-11T01:53:21.259Z,44.27
2016-04-11T01:54:21.293Z,44.27
2016-04-11T01:55:21.357Z,44.17
2016-04-11T01:56:21.392Z,44.17
2016-04-11T01:57:21.441Z,44.17
2016-04-11T01:58:21.506Z,44.27
2016-04-11T01:59:21.572Z,44.46
2016-04-11T02:00:21.620Z,44.17
2016-04-11T02:01:21.639Z,44.27
2016-04-11T02:02:21.704Z,44.08
2016-04-11T02:03:21.769Z,44.46
2016-04-11T02:04:21.803Z,44.17
2016-04-11T02:05:21.853Z,44.27
2016-04-11T02:06:21.918Z,44.27
2016-04-11T02:07:21.969Z,44.46
2016-04-11T02:08:22.002Z,44.56
2016-04-11T02:09:22.083Z,44.56
2016-04-11T02:10:22.132Z,44.46
2016-04-11T02:11:22.166Z,44.84
2016-04-11T02:12:22.216Z,44.65
2016-04-11T02:13:22.265Z,44.46
2016-04-11T02:14:22.346Z,44.84
2016-04-11T02:15:22.379Z,44.65
2016-04-11T02:16:22.414Z,44.84
2016-04-11T02:17:22.495Z,44.65
2016-04-11T02:18:22.560Z,44.46
2016-04-11T02:19:22.593Z,44.75
2016-04-11T02:20:22.660Z,44.65
2016-04-11T02:21:22.693Z,44.75
2016-04-11T02:22:22.726Z,44.84
2016-04-11T02:23:22.792Z,44.56
2016-04-11T02:24:22.826Z,44.56
2016-04-11T02:25:22.907Z,44.84
2016-04-11T02:26:22.956Z,44.84
2016-04-11T02:27:22.990Z,44.75
2016-04-11T02:28:23.055Z,44.94
2016-04-11T02:29:23.120Z,44.94
2016-04-11T02:30:23.155Z,45.04
2016-04-11T02:31:23.204Z,44.75
2016-04-11T02:32:23.253Z,44.94
2016-04-11T02:33:23.304Z,44.94
2016-04-11T02:34:23.353Z,44.75
2016-04-11T02:35:23.419Z,42.93
2016-04-11T02:36:23.452Z,44.08
2016-04-11T02:37:23.533Z,43.98
2016-04-11T02:38:23.567Z,43.5
2016-04-11T02:39:23.617Z,43.98
2016-04-11T02:40:23.697Z,44.27
2016-04-11T02:41:23.716Z,44.27
2016-04-11T02:42:23.843Z,44.27
2016-04-11T02:43:23.830Z,44.37
2016-04-11T02:44:23.863Z,44.46
2016-04-11T02:45:23.913Z,44.46
2016-04-11T02:46:23.994Z,44.46
2016-04-11T02:47:24.029Z,44.46
2016-04-11T02:48:24.063Z,44.84
2016-04-11T02:49:24.112Z,44.46
2016-04-11T02:50:24.176Z,44.65
2016-04-11T02:51:24.211Z,44.65
2016-04-11T02:52:24.276Z,44.75
2016-04-11T02:53:24.326Z,44.94
2016-04-11T02:54:24.375Z,44.75
2016-04-11T02:55:24.425Z,44.84
2016-04-11T02:56:24.474Z,44.84
2016-04-11T02:57:24.524Z,44.84
2016-04-11T02:58:24.573Z,44.84
2016-04-11T02:59:24.639Z,44.84
2016-04-11T03:00:24.673Z,44.84
2016-04-11T03:01:24.723Z,44.94
2016-04-11T03:02:24.787Z,44.94
2016-04-11T03:03:24.836Z,44.84
2016-04-11T03:04:24.886Z,45.14
2016-04-11T03:05:24.936Z,45.14
2016-04-11T03:06:25.002Z,44.65
2016-04-11T03:07:25.035Z,44.75
2016-04-11T03:08:24.944Z,44.94
2016-04-11T03:09:25.149Z,44.94
2016-04-11T03:10:25.199Z,45.14
2016-04-11T03:11:25.249Z,45.14
2016-04-11T03:12:25.299Z,44.94
2016-04-11T03:13:25.348Z,45.04
2016-04-11T03:14:25.399Z,44.94
2016-04-11T03:15:25.463Z,44.94
2016-04-11T03:16:25.513Z,45.32
2016-04-11T03:17:25.562Z,45.04
2016-04-11T03:18:25.612Z,45.04
2016-04-11T03:19:25.677Z,44.94
2016-04-11T03:20:25.710Z,45.14
2016-04-11T03:21:25.760Z,45.23
2016-04-11T03:22:25.810Z,45.04
2016-04-11T03:23:25.875Z,45.14
2016-04-11T03:24:25.925Z,45.04
2016-04-11T03:25:25.974Z,45.14
2016-04-11T03:26:26.023Z,44.94
2016-04-11T03:27:26.120Z,45.14
2016-04-11T03:28:26.123Z,45.14
2016-04-11T03:29:26.173Z,44.94
2016-04-11T03:30:26.222Z,45.04
2016-04-11T03:31:26.272Z,44.94
2016-04-11T03:32:26.336Z,44.84
2016-04-11T03:33:26.386Z,45.04
2016-04-11T03:34:26.452Z,45.23
2016-04-11T03:35:26.486Z,45.52
2016-04-11T03:36:26.535Z,45.32
2016-04-11T03:37:26.600Z,45.04
2016-04-11T03:38:26.649Z,44.94
2016-04-11T03:39:26.684Z,45.14
2016-04-11T03:40:26.749Z,45.04
2016-04-11T03:41:26.033Z,45.32
2016-04-11T03:42:27.145Z,45.32
2016-04-11T03:43:26.898Z,44.94
2016-04-11T03:44:26.947Z,44.94
2016-04-11T03:45:27.013Z,45.04
2016-04-11T03:46:27.062Z,44.94
2016-04-11T03:47:27.112Z,44.94
2016-04-11T03:48:27.161Z,45.32
2016-04-11T03:49:27.211Z,45.42
2016-04-11T03:50:27.260Z,44.84
2016-04-11T03:51:27.310Z,45.23
2016-04-11T03:52:27.359Z,44.94
2016-04-11T03:53:27.409Z,45.32
2016-04-11T03:54:27.474Z,45.42
2016-04-11T03:55:27.523Z,45.42
2016-04-11T03:56:27.573Z,45.71
2016-04-11T03:57:27.670Z,45.32
2016-04-11T03:58:27.673Z,45.14
2016-04-11T03:59:27.737Z,45.14
2016-04-11T04:00:27.787Z,45.42
2016-04-11T04:01:27.820Z,45.14
2016-04-11T04:02:27.871Z,45.23
2016-04-11T04:03:27.936Z,45.42
2016-04-11T04:04:27.986Z,45.42
2016-04-11T04:05:28.035Z,45.42
2016-04-11T04:06:28.084Z,45.42
2016-04-11T04:07:28.133Z,45.04
2016-04-11T04:08:28.184Z,45.23
2016-04-11T04:09:28.233Z,45.23
2016-04-11T04:10:28.283Z,45.42
2016-04-11T04:11:28.347Z,45.42
2016-04-11T04:12:28.430Z,45.04
2016-04-11T04:13:28.447Z,45.42
2016-04-11T04:14:28.497Z,45.23
2016-04-11T04:15:28.546Z,45.32
2016-04-11T04:16:28.596Z,45.52
2016-04-11T04:17:28.661Z,45.52
2016-04-11T04:18:28.711Z,45.61
2016-04-11T04:19:28.760Z,45.42
2016-04-11T04:20:28.794Z,45.9
2016-04-11T04:21:28.859Z,45.9
2016-04-11T04:22:28.909Z,45.81
2016-04-11T04:23:28.974Z,45.81
2016-04-11T04:24:29.041Z,45.32
2016-04-11T04:25:29.150Z,45.81
2016-04-11T04:26:29.259Z,45.71
2016-04-11T04:27:29.477Z,45.23
2016-04-11T04:28:29.431Z,45.52
2016-04-11T04:29:29.502Z,45.32
2016-04-11T04:30:29.567Z,45.23
2016-04-11T04:31:29.632Z,45.61
2016-04-11T04:32:29.699Z,45.32
2016-04-11T04:33:29.795Z,45.52
2016-04-11T04:34:29.836Z,45.23
2016-04-11T04:35:29.891Z,45.23
2016-04-11T04:36:29.947Z,45.23
2016-04-11T04:37:30.003Z,45.42
2016-04-11T04:38:30.058Z,45.42
2016-04-11T04:39:30.111Z,45.61
2016-04-11T04:40:30.177Z,45.81
2016-04-11T04:41:30.229Z,45.81
2016-04-11T04:42:30.531Z,46.38
2016-04-11T04:43:30.332Z,46.38
2016-04-11T04:44:30.383Z,46.28
2016-04-11T04:45:30.433Z,46.09
2016-04-11T04:46:30.483Z,45.71
2016-04-11T04:47:30.549Z,46.19
2016-04-11T04:48:30.600Z,46.77
2016-04-11T04:49:30.650Z,45.9
2016-04-11T04:50:30.700Z,46.09
2016-04-11T04:51:30.750Z,46.77
2016-04-11T04:52:30.815Z,46.09
2016-04-11T04:53:30.849Z,46.28
2016-04-11T04:54:30.899Z,46.19
2016-04-11T04:55:30.948Z,46.67
2016-04-11T04:56:30.998Z,46
2016-04-11T04:57:31.282Z,46
2016-04-11T04:58:31.113Z,46
2016-04-11T04:59:31.178Z,46.58
2016-04-11T05:00:31.212Z,45.9
2016-04-11T05:01:31.277Z,45.9
2016-04-11T05:02:31.312Z,46.38
2016-04-11T05:03:31.361Z,46
2016-04-11T05:04:31.426Z,45.9
2016-04-11T05:05:31.460Z,46
2016-04-11T05:06:31.525Z,46
2016-04-11T05:07:31.575Z,46.19
2016-04-11T05:08:30.874Z,46.09
2016-04-11T05:09:31.674Z,45.71
2016-04-11T05:10:31.723Z,45.9
2016-04-11T05:11:31.789Z,46.67
2016-04-11T05:12:31.900Z,46.28
2016-04-11T05:13:31.888Z,46.09
2016-04-11T05:14:31.921Z,46.09
2016-04-11T05:15:31.986Z,46.09
2016-04-11T05:16:32.036Z,46
2016-04-11T05:17:32.086Z,46
2016-04-11T05:18:32.135Z,46.09
2016-04-11T05:19:32.185Z,46.19
2016-04-11T05:20:32.250Z,46
2016-04-11T05:21:32.299Z,46
2016-04-11T05:22:32.349Z,45.9
2016-04-11T05:23:32.399Z,46.09
2016-04-11T05:24:32.448Z,46.58
2016-04-11T05:25:32.498Z,46
2016-04-11T05:26:32.563Z,46
2016-04-11T05:27:32.598Z,46
2016-04-11T05:28:32.647Z,46
2016-04-11T05:29:32.728Z,45.9
2016-04-11T05:30:32.762Z,46
2016-04-11T05:31:32.811Z,45.9
2016-04-11T05:32:32.861Z,46.38
2016-04-11T05:33:32.910Z,41.1
2016-04-11T05:34:32.975Z,40.05
2016-04-11T05:35:33.009Z,39.54
2016-04-11T05:36:33.059Z,39.62
2016-04-11T05:37:33.124Z,39.23
2016-04-11T05:38:33.173Z,39.31
2016-04-11T05:39:33.223Z,39.22
2016-04-11T05:40:33.303Z,39.5
2016-04-11T05:41:33.322Z,38.64
2016-04-11T05:42:33.373Z,39.48
2016-04-11T05:43:33.437Z,39.87
2016-04-11T05:44:33.487Z,39.87
2016-04-11T05:45:33.521Z,39.29
2016-04-11T05:46:33.586Z,40.16
2016-04-11T05:47:33.636Z,39.68
2016-04-11T05:48:33.685Z,39.85
2016-04-11T05:49:33.735Z,40.04
2016-04-11T05:50:33.784Z,40.14
2016-04-11T05:51:33.833Z,39.85
2016-04-11T05:52:33.883Z,39.83
2016-04-11T05:53:33.933Z,40.12
2016-04-11T05:54:33.982Z,39.54
2016-04-11T05:55:34.032Z,40.12
2016-04-11T05:56:34.082Z,40.02
2016-04-11T05:57:34.147Z,40.12
2016-04-11T05:58:34.196Z,40.31
2016-04-11T05:59:34.246Z,40.31
2016-04-11T06:00:34.280Z,39.73
2016-04-11T06:01:34.360Z,40.58
2016-04-11T06:02:34.379Z,40.29
2016-04-11T06:03:34.428Z,40.67
2016-04-11T06:04:34.478Z,40.77
2016-04-11T06:05:34.543Z,40.95
2016-04-11T06:06:34.593Z,40.29
2016-04-11T06:07:34.642Z,40.29
2016-04-11T06:08:34.693Z,40.38
2016-04-11T06:09:34.741Z,40.38
2016-04-11T06:10:34.791Z,40.86
2016-04-11T06:11:34.841Z,40.67
2016-04-11T06:12:34.890Z,40.58
2016-04-11T06:13:34.939Z,40.67
2016-04-11T06:14:34.974Z,40.86
2016-04-11T06:15:35.039Z,40.86
2016-04-11T06:16:35.089Z,41.13
2016-04-11T06:17:35.139Z,41.13
2016-04-11T06:18:35.188Z,41.7
2016-04-11T06:19:35.221Z,41.61
2016-04-11T06:20:35.287Z,42.18
2016-04-11T06:21:35.336Z,41.8
2016-04-11T06:22:35.385Z,41.7
2016-04-11T06:23:35.436Z,41.61
2016-04-11T06:24:35.485Z,42.18
2016-04-11T06:25:35.535Z,41.61
2016-04-11T06:26:35.569Z,41.8
2016-04-11T06:27:35.634Z,41.99
2016-04-11T06:28:35.668Z,42.08
2016-04-11T06:29:35.733Z,42.2
2016-04-11T06:30:35.782Z,42.2
2016-04-11T06:31:35.816Z,42.4
2016-04-11T06:32:35.866Z,41.55
2016-04-11T06:33:35.932Z,41.27
2016-04-11T06:34:35.981Z,41.17
2016-04-11T06:35:36.014Z,41.07
2016-04-11T06:36:36.080Z,41.28
2016-04-11T06:37:36.129Z,41
2016-04-11T06:38:36.178Z,40.71
2016-04-11T06:39:36.213Z,40.81
2016-04-11T06:40:36.262Z,40.9
2016-04-11T06:41:36.312Z,40.52
2016-04-11T06:42:36.378Z,40.81
2016-04-11T06:43:36.411Z,41
2016-04-11T06:44:36.461Z,41.19
2016-04-11T06:45:36.526Z,41.19
2016-04-11T06:46:36.560Z,41
2016-04-11T06:47:36.609Z,41.5
2016-04-11T06:48:36.659Z,42.36
2016-04-11T06:49:36.709Z,42.27
2016-04-11T06:50:36.758Z,41.69
2016-04-11T06:51:36.807Z,41.4
2016-04-11T06:52:36.858Z,42.17
2016-04-11T06:53:36.907Z,42.17
2016-04-11T06:54:36.956Z,41.69
2016-04-11T06:55:37.006Z,41.69
2016-04-11T06:56:37.071Z,41.8
2016-04-11T06:57:37.105Z,42.57
2016-04-11T06:58:37.171Z,41.88
2016-04-11T06:59:37.204Z,41.9
2016-04-11T07:00:37.254Z,41.8
2016-04-11T07:01:37.303Z,41.8
2016-04-11T07:02:37.368Z,42
2016-04-11T07:03:37.418Z,41.9
2016-04-11T07:04:37.468Z,41.52
2016-04-11T07:05:37.518Z,41.8
2016-04-11T07:06:37.567Z,41.61
2016-04-11T07:07:37.617Z,41.61
2016-04-11T07:08:37.666Z,41.61
2016-04-11T07:09:37.715Z,41.71
2016-04-11T07:10:37.765Z,41.52
2016-04-11T07:11:37.814Z,41.71
2016-04-11T07:12:37.864Z,41.52
2016-04-11T07:13:37.914Z,41.61
2016-04-11T07:14:37.994Z,41.8
2016-04-11T07:15:38.013Z,41.52
2016-04-11T07:16:38.078Z,41.42
2016-04-11T07:17:38.128Z,41.61
2016-04-11T07:18:38.162Z,41.52
2016-04-11T07:19:38.227Z,41.52
2016-04-11T07:20:38.277Z,41.16
2016-04-11T07:21:38.325Z,41.16
2016-04-11T07:22:38.360Z,40.96
2016-04-11T07:23:38.425Z,40.94
2016-04-11T07:24:38.474Z,40.87
2016-04-11T07:25:38.526Z,40.96
2016-04-11T07:26:38.576Z,40.67
2016-04-11T07:27:38.641Z,41.06
2016-04-11T07:28:38.674Z,40.67
2016-04-11T07:29:38.724Z,40.67
2016-04-11T07:30:38.789Z,40.77
2016-04-11T07:31:38.839Z,40.67
2016-04-11T07:32:38.890Z,40.77
2016-04-11T07:33:38.938Z,40.39
2016-04-11T07:34:39.003Z,40.2
2016-04-11T07:35:39.037Z,40.39
2016-04-11T07:36:39.087Z,40.39
2016-04-11T07:37:39.136Z,40.48
2016-04-11T07:38:39.186Z,40.48
2016-04-11T07:39:39.236Z,40.48
2016-04-11T07:40:39.286Z,40.2
2016-04-11T07:41:39.350Z,39.91
2016-04-11T07:42:39.384Z,40.2
2016-04-11T07:43:39.434Z,39.91
2016-04-11T07:44:39.483Z,39.72
2016-04-11T07:45:39.564Z,39.72
2016-04-11T07:46:39.583Z,39.81
2016-04-11T07:47:39.632Z,39.53
2016-04-11T07:48:39.714Z,39.62
2016-04-11T07:49:39.747Z,40
2016-04-11T07:50:39.797Z,39.53
2016-04-11T07:51:39.846Z,39.73
2016-04-11T07:52:39.895Z,39.62
2016-04-11T07:53:39.946Z,39.64
2016-04-11T07:54:39.994Z,39.54
2016-04-11T07:55:40.060Z,39.54
2016-04-11T07:56:40.110Z,38.87
2016-04-11T07:57:40.159Z,38.87
2016-04-11T07:58:40.209Z,38.78
2016-04-11T07:59:40.258Z,38.68
2016-04-11T08:00:40.307Z,39.45
2016-04-11T08:01:40.357Z,39.06
2016-04-11T08:02:40.407Z,38.78
2016-04-11T08:03:40.457Z,38.78
2016-04-11T08:04:40.506Z,38.78
2016-04-11T08:05:40.556Z,38.49
2016-04-11T08:06:40.620Z,38.1
2016-04-11T08:07:40.670Z,37.82
2016-04-11T08:08:40.720Z,38.39
2016-04-11T08:09:40.774Z,38.39
2016-04-11T08:10:40.809Z,38.59
2016-04-11T08:11:40.873Z,38.59
2016-04-11T08:12:40.922Z,38.87
2016-04-11T08:13:40.972Z,38.29
2016-04-11T08:14:41.022Z,38.68
2016-04-11T08:15:41.072Z,38.49
2016-04-11T08:16:41.121Z,38.59
2016-04-11T08:17:41.176Z,38.49
2016-04-11T08:18:41.225Z,38.78
2016-04-11T08:19:41.274Z,38.78
2016-04-11T08:20:41.325Z,38.59
2016-04-11T08:21:41.390Z,38.59
2016-04-11T08:22:41.439Z,38.78
2016-04-11T08:23:41.488Z,38.59
2016-04-11T08:24:41.537Z,38.49
2016-04-11T08:25:41.432Z,38.68
2016-04-11T08:26:41.637Z,38.59
2016-04-11T08:27:41.703Z,38.59
2016-04-11T08:28:41.737Z,38.59
2016-04-11T08:29:41.786Z,38.49
2016-04-11T08:30:41.851Z,38.87
2016-04-11T08:31:41.885Z,38.39
2016-04-11T08:32:41.935Z,38.78
2016-04-11T08:33:42.000Z,38.78
2016-04-11T08:34:42.050Z,38.68
2016-04-11T08:35:42.100Z,38.68
2016-04-11T08:36:42.148Z,38.49
2016-04-11T08:37:42.198Z,38.68
2016-04-11T08:38:42.248Z,38.68
2016-04-11T08:39:42.297Z,38.78
2016-04-11T08:40:42.347Z,38.78
2016-04-11T08:41:42.428Z,38.49
2016-04-11T08:42:42.461Z,38.29
2016-04-11T08:43:42.496Z,38.29
2016-04-11T08:44:42.561Z,38.39
2016-04-11T08:45:42.610Z,38.68
2016-04-11T08:46:42.660Z,38.49
2016-04-11T08:47:42.725Z,38.49
2016-04-11T08:48:42.759Z,38.39
2016-04-11T08:49:42.824Z,38.39
2016-04-11T08:50:42.890Z,38.39
2016-04-11T08:51:42.924Z,38.29
2016-04-11T08:52:42.988Z,38.39
2016-04-11T08:53:43.022Z,38.29
2016-04-11T08:54:43.072Z,38.29
2016-04-11T08:55:43.121Z,38.29
2016-04-11T08:56:43.171Z,38.32
2016-04-11T08:57:43.220Z,38.29
2016-04-11T08:58:43.270Z,38.2
2016-04-11T08:59:43.367Z,38.41
2016-04-11T09:00:43.400Z,38.2
2016-04-11T09:01:43.435Z,38.41
2016-04-11T09:02:43.484Z,38.32
2016-04-11T09:03:43.550Z,38.2
2016-04-11T09:04:43.598Z,38.32
2016-04-11T09:05:43.680Z,38.12
2016-04-11T09:06:43.683Z,38.22
2016-04-11T09:07:43.747Z,38.22
2016-04-11T09:08:43.781Z,38.12
2016-04-11T09:09:43.831Z,38.22
2016-04-11T09:10:43.897Z,38.22
2016-04-11T09:11:43.946Z,38.12
2016-04-11T09:12:43.995Z,38.22
2016-04-11T09:13:44.061Z,38.12
2016-04-11T09:14:44.094Z,38.6
2016-04-11T09:15:44.160Z,38.41
2016-04-11T09:16:44.210Z,38.22
2016-04-11T09:17:44.258Z,38.41
2016-04-11T09:18:44.308Z,38.22
2016-04-11T09:19:44.358Z,38.12
2016-04-11T09:20:44.407Z,38.41
2016-04-11T09:21:44.457Z,38.32
2016-04-11T09:22:44.522Z,38.41
2016-04-11T09:23:44.557Z,38.12
2016-04-11T09:24:44.621Z,38.32
2016-04-11T09:25:44.671Z,38.32
2016-04-11T09:26:44.721Z,37.93
2016-04-11T09:27:44.770Z,38.02
2016-04-11T09:28:44.820Z,38.32
2016-04-11T09:29:44.870Z,37.84
2016-04-11T09:30:44.919Z,38.02
2016-04-11T09:31:44.984Z,38.12
2016-04-11T09:32:45.034Z,38.02
2016-04-11T09:33:45.083Z,38.02
2016-04-11T09:34:45.117Z,37.74
2016-04-11T09:35:45.182Z,37.35
2016-04-11T09:36:45.232Z,37.35
2016-04-11T09:37:45.281Z,37.84
2016-04-11T09:38:45.331Z,38.02
2016-04-11T09:39:45.397Z,38.02
2016-04-11T09:40:45.445Z,38.22
2016-04-11T09:41:45.495Z,38.12
2016-04-11T09:42:45.544Z,38.22
2016-04-11T09:43:45.595Z,38.22
2016-04-11T09:44:45.644Z,38.32
2016-04-11T09:45:45.693Z,38.12
2016-04-11T09:46:45.743Z,38.32
2016-04-11T09:47:45.808Z,38.32
2016-04-11T09:48:45.842Z,38.22
2016-04-11T09:49:45.908Z,38.32
2016-04-11T09:50:45.957Z,38.12
2016-04-11T09:51:46.007Z,38.32
2016-04-11T09:52:46.057Z,37.93
2016-04-11T09:53:46.105Z,38.22
2016-04-11T09:54:46.171Z,38.32
2016-04-11T09:55:46.204Z,38.12
2016-04-11T09:56:46.271Z,38.32
2016-04-11T09:57:46.320Z,38.22
2016-04-11T09:58:46.431Z,37.74
2016-04-11T09:59:46.418Z,37.74
2016-04-11T10:00:46.468Z,37.93
2016-04-11T10:01:46.534Z,37.74
2016-04-11T10:02:46.583Z,38.02
2016-04-11T10:03:46.632Z,37.84
2016-04-11T10:04:46.666Z,38.02
2016-04-11T10:05:46.732Z,37.93
2016-04-11T10:06:46.781Z,37.93
2016-04-11T10:07:46.831Z,37.93
2016-04-11T10:08:46.880Z,38.02
2016-04-11T10:09:46.931Z,38.22
2016-04-11T10:10:46.980Z,38.12
2016-04-11T10:11:47.045Z,37.93
2016-04-11T10:12:47.078Z,37.84
2016-04-11T10:13:47.128Z,37.64
2016-04-11T10:14:47.193Z,37.74
2016-04-11T10:15:47.243Z,37.84
2016-04-11T10:16:47.292Z,37.74
2016-04-11T10:17:47.341Z,37.74
2016-04-11T10:18:47.391Z,37.84
2016-04-11T10:19:47.441Z,37.74
2016-04-11T10:20:47.491Z,37.84
2016-04-11T10:21:47.555Z,37.64
2016-04-11T10:22:47.605Z,37.84
2016-04-11T10:23:47.655Z,38.02
2016-04-11T10:24:47.704Z,37.93
2016-04-11T10:25:47.754Z,37.64
2016-04-11T10:26:47.804Z,37.93
2016-04-11T10:27:47.868Z,37.84
2016-04-11T10:28:47.919Z,37.93
2016-04-11T10:29:47.968Z,37.74
2016-04-11T10:30:48.018Z,37.74
2016-04-11T10:31:48.067Z,37.84
2016-04-11T10:32:48.117Z,37.84
2016-04-11T10:33:48.167Z,37.64
2016-04-11T10:34:48.232Z,37.74
2016-04-11T10:35:48.265Z,37.35
2016-04-11T10:36:48.331Z,37.35
2016-04-11T10:37:48.380Z,37.45
2016-04-11T10:38:48.430Z,37.35
2016-04-11T10:39:48.479Z,37.35
2016-04-11T10:40:48.529Z,37.26
2016-04-11T10:41:48.578Z,37.16
2016-04-11T10:42:48.628Z,36.97
2016-04-11T10:43:48.694Z,36.58
2016-04-11T10:44:48.742Z,36.58
2016-04-11T10:45:48.792Z,36.78
2016-04-11T10:46:48.827Z,36.68
2016-04-11T10:47:48.891Z,36.49
2016-04-11T10:48:48.941Z,36.49
2016-04-11T10:49:48.991Z,36.88
2016-04-11T10:50:49.040Z,36.78
2016-04-11T10:51:49.105Z,36.49
2016-04-11T10:52:49.139Z,36.2
2016-04-11T10:53:49.205Z,36.58
2016-04-11T10:54:49.254Z,36.49
2016-04-11T10:55:49.304Z,36.2
2016-04-11T10:56:49.353Z,36.2
2016-04-11T10:57:49.403Z,36.3
2016-04-11T10:58:49.484Z,36.11
2016-04-11T10:59:49.518Z,36.11
2016-04-11T11:00:49.567Z,36.4
2016-04-11T11:01:49.617Z,36.11
2016-04-11T11:02:49.665Z,36.68
2016-04-11T11:03:49.732Z,36.49
2016-04-11T11:04:49.626Z,36.58
2016-04-11T11:05:49.831Z,36.68
2016-04-11T11:06:49.864Z,36.58
2016-04-11T11:07:49.914Z,36.4
2016-04-11T11:08:49.978Z,36.4
2016-04-11T11:09:50.029Z,36.68
2016-04-11T11:10:50.079Z,36.49
2016-04-11T11:11:50.128Z,36.49
2016-04-11T11:12:50.177Z,36.2
2016-04-11T11:13:50.259Z,36.11
2016-04-11T11:14:50.292Z,36.3
2016-04-11T11:15:50.342Z,36.3
2016-04-11T11:16:50.407Z,36.2
2016-04-11T11:17:50.442Z,35.91
2016-04-11T11:18:50.491Z,36.2
2016-04-11T11:19:50.540Z,36.2
2016-04-11T11:20:50.589Z,36.3
2016-04-11T11:21:50.655Z,36.3
2016-04-11T11:22:50.704Z,36.2
2016-04-11T11:23:50.738Z,36.3
2016-04-11T11:24:50.804Z,35.82
2016-04-11T11:25:50.853Z,35.72
2016-04-11T11:26:50.902Z,35.63
2016-04-11T11:27:50.952Z,35.63
2016-04-11T11:28:51.018Z,35.63
2016-04-11T11:29:51.052Z,35.63
2016-04-11T11:30:51.116Z,35.63
2016-04-11T11:31:51.166Z,35.63
2016-04-11T11:32:51.215Z,35.72
2016-04-11T11:33:51.265Z,35.63
2016-04-11T11:34:51.314Z,35.63
2016-04-11T11:35:51.364Z,35.63
2016-04-11T11:36:51.414Z,35.63
2016-04-11T11:37:51.464Z,35.63
2016-04-11T11:38:51.529Z,36.01
2016-04-11T11:39:51.562Z,35.72
2016-04-11T11:40:51.628Z,35.91
2016-04-11T11:41:51.678Z,36.01
2016-04-11T11:42:51.727Z,36.01
2016-04-11T11:43:51.839Z,35.72
2016-04-11T11:44:51.826Z,35.82
2016-04-11T11:45:51.876Z,35.72
2016-04-11T11:46:51.925Z,36.11
2016-04-11T11:47:51.975Z,35.72
2016-04-11T11:48:52.040Z,35.72
2016-04-11T11:49:52.089Z,35.63
2016-04-11T11:50:52.139Z,36.2
2016-04-11T11:51:52.188Z,35.91
2016-04-11T11:52:52.239Z,36.11
2016-04-11T11:53:52.288Z,36.11
2016-04-11T11:54:52.338Z,36.01
2016-04-11T11:55:52.402Z,36.11
2016-04-11T11:56:52.436Z,36.01
2016-04-11T11:57:52.486Z,36.11
2016-04-11T11:58:52.582Z,36.2
2016-04-11T11:59:52.601Z,36.01
2016-04-11T12:00:52.650Z,35.72
2016-04-11T12:01:52.700Z,36.11
2016-04-11T12:02:52.749Z,36.2
2016-04-11T12:03:52.798Z,36.2
2016-04-11T12:04:52.865Z,36.01
2016-04-11T12:05:52.899Z,36.2
2016-04-11T12:06:52.963Z,36.49
2016-04-11T12:07:53.012Z,36.3
2016-04-11T12:08:53.063Z,36.49
2016-04-11T12:09:53.111Z,36.11
2016-04-11T12:10:53.178Z,36.58
2016-04-11T12:11:53.211Z,35.91
2016-04-11T12:12:53.276Z,36.2
2016-04-11T12:13:53.326Z,36.3
2016-04-11T12:14:53.376Z,36.11
2016-04-11T12:15:53.425Z,36.3
2016-04-11T12:16:53.474Z,36.11
2016-04-11T12:17:53.525Z,35.82
2016-04-11T12:18:53.589Z,36.01
2016-04-11T12:19:53.623Z,36.4
2016-04-11T12:20:53.688Z,36.2
2016-04-11T12:21:53.738Z,36.2
2016-04-11T12:22:53.850Z,36.01
2016-04-11T12:23:53.838Z,36.3
2016-04-11T12:24:53.886Z,35.91
2016-04-11T12:25:53.936Z,35.91
2016-04-11T12:26:53.986Z,36.3
2016-04-11T12:27:54.035Z,35.82
2016-04-11T12:28:54.101Z,36.2
2016-04-11T12:29:54.149Z,35.63
2016-04-11T12:30:54.185Z,36.2
2016-04-11T12:31:54.249Z,36.3
2016-04-11T12:32:54.299Z,36.01
2016-04-11T12:33:54.348Z,36.4
2016-04-11T12:34:54.398Z,36.11
2016-04-11T12:35:54.448Z,36.11
2016-04-11T12:36:54.512Z,36.3
2016-04-11T12:37:54.562Z,36.01
2016-04-11T12:38:54.612Z,36.11
2016-04-11T12:39:54.662Z,36.11
2016-04-11T12:40:54.712Z,36.3
2016-04-11T12:41:54.761Z,36.4
2016-04-11T12:42:54.809Z,36.49
2016-04-11T12:43:55.000Z,36.49
2016-04-11T12:44:54.909Z,36.4
2016-04-11T12:45:54.959Z,36.3
2016-04-11T12:46:55.024Z,36.49
2016-04-11T12:47:55.073Z,36.49
2016-04-11T12:48:55.122Z,36.11
2016-04-11T12:49:55.173Z,35.91
2016-04-11T12:50:55.223Z,36.4
2016-04-11T12:51:55.116Z,36.3
2016-04-11T12:52:55.322Z,36.2
2016-04-11T12:53:55.371Z,36.58
2016-04-11T12:54:55.436Z,36.49
2016-04-11T12:55:55.485Z,36.49
2016-04-11T12:56:55.535Z,36.11
2016-04-11T12:57:55.585Z,36.2
2016-04-11T12:58:55.634Z,36.49